sensor_id;sensor_type;location;lat;lon;timestamp;P1;durP1;ratioP1;P2;durP2;ratioP2
11197;SDS011;5655;48.744;9.162;2023-02-28T00:00:33;4.63;;;1.97;;
11197;SDS011;5655;48.744;9.162;2023-02-28T00:02:59;4.30;;;2.43;;
11197;SDS011;5655;48.744;9.162;2023-02-28T00:05:25;5.53;;;2.70;;
11197;SDS011;5655;48.744;9.162;2023-02-28T00:07:51;3.17;;;2.30;;
11197;SDS011;5655;48.744;9.162;2023-02-28T00:10:21;5.67;;;2.70;;
11197;SDS011;5655;48.744;9.162;2023-02-28T00:12:48;5.63;;;2.83;;
11197;SDS011;5655;48.744;9.162;2023-02-28T00:15:15;3.13;;;2.10;;
11197;SDS011;5655;48.744;9.162;2023-02-28T00:17:41;3.10;;;2.37;;
11197;SDS011;5655;48.744;9.162;2023-02-28T00:20:07;3.67;;;2.60;;
11197;SDS011;5655;48.744;9.162;2023-02-28T00:22:39;5.67;;;2.53;;
11197;SDS011;5655;48.744;9.162;2023-02-28T00:25:06;5.20;;;2.70;;
11197;SDS011;5655;48.744;9.162;2023-02-28T00:27:34;4.10;;;3.27;;
11197;SDS011;5655;48.744;9.162;2023-02-28T00:30:00;4.07;;;2.50;;
11197;SDS011;5655;48.744;9.162;2023-02-28T00:32:26;3.40;;;2.43;;
11197;SDS011;5655;48.744;9.162;2023-02-28T00:34:51;4.50;;;2.70;;
11197;SDS011;5655;48.744;9.162;2023-02-28T00:37:16;4.83;;;2.63;;
11197;SDS011;5655;48.744;9.162;2023-02-28T00:39:42;3.43;;;2.33;;
11197;SDS011;5655;48.744;9.162;2023-02-28T00:42:07;4.27;;;2.97;;
11197;SDS011;5655;48.744;9.162;2023-02-28T00:44:33;4.83;;;2.43;;
11197;SDS011;5655;48.744;9.162;2023-02-28T00:46:59;3.37;;;2.30;;
11197;SDS011;5655;48.744;9.162;2023-02-28T00:49:25;3.57;;;2.70;;
11197;SDS011;5655;48.744;9.162;2023-02-28T00:51:52;4.57;;;2.57;;
11197;SDS011;5655;48.744;9.162;2023-02-28T00:54:18;4.90;;;2.13;;
11197;SDS011;5655;48.744;9.162;2023-02-28T00:56:44;5.37;;;2.40;;
11197;SDS011;5655;48.744;9.162;2023-02-28T00:59:15;4.13;;;2.70;;
11197;SDS011;5655;48.744;9.162;2023-02-28T01:01:42;3.90;;;2.37;;
11197;SDS011;5655;48.744;9.162;2023-02-28T01:04:08;2.77;;;2.47;;
11197;SDS011;5655;48.744;9.162;2023-02-28T01:06:34;3.67;;;2.43;;
11197;SDS011;5655;48.744;9.162;2023-02-28T01:08:59;4.90;;;3.07;;
11197;SDS011;5655;48.744;9.162;2023-02-28T01:11:25;4.53;;;2.67;;
11197;SDS011;5655;48.744;9.162;2023-02-28T01:13:51;6.27;;;3.13;;
11197;SDS011;5655;48.744;9.162;2023-02-28T01:16:16;4.00;;;2.80;;
11197;SDS011;5655;48.744;9.162;2023-02-28T01:18:42;4.43;;;2.70;;
11197;SDS011;5655;48.744;9.162;2023-02-28T01:21:10;5.17;;;2.67;;
11197;SDS011;5655;48.744;9.162;2023-02-28T01:23:37;4.77;;;2.73;;
11197;SDS011;5655;48.744;9.162;2023-02-28T01:26:04;4.80;;;3.00;;
11197;SDS011;5655;48.744;9.162;2023-02-28T01:28:31;3.07;;;2.23;;
11197;SDS011;5655;48.744;9.162;2023-02-28T01:30:57;4.30;;;2.87;;
11197;SDS011;5655;48.744;9.162;2023-02-28T01:33:22;5.00;;;2.97;;
11197;SDS011;5655;48.744;9.162;2023-02-28T01:35:47;5.93;;;3.10;;
11197;SDS011;5655;48.744;9.162;2023-02-28T01:38:13;4.50;;;3.00;;
11197;SDS011;5655;48.744;9.162;2023-02-28T01:40:39;3.83;;;2.73;;
11197;SDS011;5655;48.744;9.162;2023-02-28T01:43:05;5.37;;;2.67;;
11197;SDS011;5655;48.744;9.162;2023-02-28T01:45:44;5.90;;;2.77;;
11197;SDS011;5655;48.744;9.162;2023-02-28T01:48:09;5.57;;;3.00;;
11197;SDS011;5655;48.744;9.162;2023-02-28T01:50:36;6.07;;;2.80;;
11197;SDS011;5655;48.744;9.162;2023-02-28T01:53:04;5.03;;;2.93;;
11197;SDS011;5655;48.744;9.162;2023-02-28T01:55:31;4.63;;;3.10;;
11197;SDS011;5655;48.744;9.162;2023-02-28T01:57:58;8.87;;;2.87;;
11197;SDS011;5655;48.744;9.162;2023-02-28T02:00:27;3.47;;;3.00;;
11197;SDS011;5655;48.744;9.162;2023-02-28T02:02:58;4.13;;;3.30;;
11197;SDS011;5655;48.744;9.162;2023-02-28T02:05:29;5.70;;;3.03;;
11197;SDS011;5655;48.744;9.162;2023-02-28T02:07:57;5.83;;;2.70;;
11197;SDS011;5655;48.744;9.162;2023-02-28T02:31:54;6.23;;;3.50;;
11197;SDS011;5655;48.744;9.162;2023-02-28T02:39:56;4.70;;;3.53;;
11197;SDS011;5655;48.744;9.162;2023-02-28T02:42:41;5.70;;;3.70;;
11197;SDS011;5655;48.744;9.162;2023-02-28T02:45:24;6.13;;;3.87;;
11197;SDS011;5655;48.744;9.162;2023-02-28T02:47:54;4.23;;;3.40;;
11197;SDS011;5655;48.744;9.162;2023-02-28T02:50:24;5.83;;;3.47;;
11197;SDS011;5655;48.744;9.162;2023-02-28T02:53:01;5.27;;;3.60;;
11197;SDS011;5655;48.744;9.162;2023-02-28T02:55:28;4.73;;;3.33;;
11197;SDS011;5655;48.744;9.162;2023-02-28T02:57:58;5.07;;;3.87;;
11197;SDS011;5655;48.744;9.162;2023-02-28T03:00:32;8.67;;;4.27;;
11197;SDS011;5655;48.744;9.162;2023-02-28T03:03:02;5.63;;;3.70;;
11197;SDS011;5655;48.744;9.162;2023-02-28T03:05:34;5.00;;;3.80;;
11197;SDS011;5655;48.744;9.162;2023-02-28T03:08:10;6.53;;;4.03;;
11197;SDS011;5655;48.744;9.162;2023-02-28T03:10:37;6.57;;;3.97;;
11197;SDS011;5655;48.744;9.162;2023-02-28T03:18:23;5.57;;;4.03;;
11197;SDS011;5655;48.744;9.162;2023-02-28T03:26:45;6.47;;;4.00;;
11197;SDS011;5655;48.744;9.162;2023-02-28T03:31:53;7.70;;;4.10;;
11197;SDS011;5655;48.744;9.162;2023-02-28T03:34:31;7.07;;;4.10;;
11197;SDS011;5655;48.744;9.162;2023-02-28T03:37:00;5.57;;;3.83;;
11197;SDS011;5655;48.744;9.162;2023-02-28T03:39:31;7.33;;;4.83;;
11197;SDS011;5655;48.744;9.162;2023-02-28T03:42:07;7.07;;;4.60;;
11197;SDS011;5655;48.744;9.162;2023-02-28T03:44:58;6.57;;;4.23;;
11197;SDS011;5655;48.744;9.162;2023-02-28T03:47:29;8.90;;;4.47;;
11197;SDS011;5655;48.744;9.162;2023-02-28T03:50:43;6.87;;;4.37;;
11197;SDS011;5655;48.744;9.162;2023-02-28T03:52:57;4.90;;;4.07;;
11197;SDS011;5655;48.744;9.162;2023-02-28T03:55:45;8.57;;;4.60;;
11197;SDS011;5655;48.744;9.162;2023-02-28T03:58:16;6.30;;;4.20;;
11197;SDS011;5655;48.744;9.162;2023-02-28T04:00:51;6.33;;;3.90;;
11197;SDS011;5655;48.744;9.162;2023-02-28T04:03:22;7.60;;;5.13;;
11197;SDS011;5655;48.744;9.162;2023-02-28T04:05:54;7.77;;;4.63;;
11197;SDS011;5655;48.744;9.162;2023-02-28T04:08:22;7.57;;;4.53;;
11197;SDS011;5655;48.744;9.162;2023-02-28T04:11:22;7.43;;;4.20;;
11197;SDS011;5655;48.744;9.162;2023-02-28T04:13:39;7.67;;;4.50;;
11197;SDS011;5655;48.744;9.162;2023-02-28T04:16:07;7.43;;;4.80;;
11197;SDS011;5655;48.744;9.162;2023-02-28T04:18:40;7.57;;;4.67;;
11197;SDS011;5655;48.744;9.162;2023-02-28T04:21:08;8.60;;;5.00;;
11197;SDS011;5655;48.744;9.162;2023-02-28T04:23:34;7.80;;;4.77;;
11197;SDS011;5655;48.744;9.162;2023-02-28T04:25:59;6.23;;;4.47;;
11197;SDS011;5655;48.744;9.162;2023-02-28T04:28:25;6.30;;;4.50;;
11197;SDS011;5655;48.744;9.162;2023-02-28T04:30:55;8.00;;;4.50;;
11197;SDS011;5655;48.744;9.162;2023-02-28T04:33:21;8.97;;;5.00;;
11197;SDS011;5655;48.744;9.162;2023-02-28T04:35:46;7.80;;;5.07;;
11197;SDS011;5655;48.744;9.162;2023-02-28T04:38:12;5.37;;;4.33;;
11197;SDS011;5655;48.744;9.162;2023-02-28T04:40:37;6.77;;;5.10;;
11197;SDS011;5655;48.744;9.162;2023-02-28T04:43:02;8.17;;;4.50;;
11197;SDS011;5655;48.744;9.162;2023-02-28T04:45:28;8.40;;;4.47;;
11197;SDS011;5655;48.744;9.162;2023-02-28T04:47:57;6.83;;;4.67;;
11197;SDS011;5655;48.744;9.162;2023-02-28T04:50:22;8.07;;;4.90;;
11197;SDS011;5655;48.744;9.162;2023-02-28T04:52:47;6.47;;;4.77;;
11197;SDS011;5655;48.744;9.162;2023-02-28T04:55:13;6.07;;;4.50;;
11197;SDS011;5655;48.744;9.162;2023-02-28T04:57:38;7.30;;;4.17;;
11197;SDS011;5655;48.744;9.162;2023-02-28T05:00:03;6.10;;;4.30;;
11197;SDS011;5655;48.744;9.162;2023-02-28T05:02:33;7.33;;;4.60;;
11197;SDS011;5655;48.744;9.162;2023-02-28T05:04:59;7.87;;;5.30;;
11197;SDS011;5655;48.744;9.162;2023-02-28T05:07:25;6.93;;;4.53;;
11197;SDS011;5655;48.744;9.162;2023-02-28T05:09:50;6.67;;;4.50;;
11197;SDS011;5655;48.744;9.162;2023-02-28T05:12:15;6.60;;;4.60;;
11197;SDS011;5655;48.744;9.162;2023-02-28T05:14:41;7.70;;;4.97;;
11197;SDS011;5655;48.744;9.162;2023-02-28T05:17:06;9.43;;;5.47;;
11197;SDS011;5655;48.744;9.162;2023-02-28T05:19:33;8.63;;;4.93;;
11197;SDS011;5655;48.744;9.162;2023-02-28T05:21:58;7.63;;;4.87;;
11197;SDS011;5655;48.744;9.162;2023-02-28T05:24:23;7.00;;;5.33;;
11197;SDS011;5655;48.744;9.162;2023-02-28T05:26:50;7.50;;;5.03;;
11197;SDS011;5655;48.744;9.162;2023-02-28T05:29:16;10.83;;;5.20;;
11197;SDS011;5655;48.744;9.162;2023-02-28T05:31:42;5.83;;;4.53;;
11197;SDS011;5655;48.744;9.162;2023-02-28T05:34:07;8.17;;;4.77;;
11197;SDS011;5655;48.744;9.162;2023-02-28T05:36:33;8.10;;;5.20;;
11197;SDS011;5655;48.744;9.162;2023-02-28T05:38:58;9.77;;;5.23;;
11197;SDS011;5655;48.744;9.162;2023-02-28T05:41:24;7.90;;;5.37;;
11197;SDS011;5655;48.744;9.162;2023-02-28T05:43:51;7.60;;;5.10;;
11197;SDS011;5655;48.744;9.162;2023-02-28T05:46:16;7.13;;;4.90;;
11197;SDS011;5655;48.744;9.162;2023-02-28T05:48:42;8.10;;;4.83;;
11197;SDS011;5655;48.744;9.162;2023-02-28T05:51:10;10.63;;;5.60;;
11197;SDS011;5655;48.744;9.162;2023-02-28T05:53:35;11.53;;;5.60;;
11197;SDS011;5655;48.744;9.162;2023-02-28T05:56:01;9.13;;;5.70;;
11197;SDS011;5655;48.744;9.162;2023-02-28T05:58:28;7.13;;;5.23;;
11197;SDS011;5655;48.744;9.162;2023-02-28T06:00:56;10.80;;;5.83;;
11197;SDS011;5655;48.744;9.162;2023-02-28T06:03:22;10.23;;;5.77;;
11197;SDS011;5655;48.744;9.162;2023-02-28T06:05:48;9.03;;;5.57;;
11197;SDS011;5655;48.744;9.162;2023-02-28T06:08:13;8.00;;;5.40;;
11197;SDS011;5655;48.744;9.162;2023-02-28T06:10:38;9.73;;;5.43;;
11197;SDS011;5655;48.744;9.162;2023-02-28T06:13:04;10.70;;;6.30;;
11197;SDS011;5655;48.744;9.162;2023-02-28T06:15:29;10.50;;;6.13;;
11197;SDS011;5655;48.744;9.162;2023-02-28T06:17:55;9.30;;;5.67;;
11197;SDS011;5655;48.744;9.162;2023-02-28T06:20:21;8.40;;;5.87;;
11197;SDS011;5655;48.744;9.162;2023-02-28T06:22:48;10.40;;;5.97;;
11197;SDS011;5655;48.744;9.162;2023-02-28T06:25:15;10.43;;;6.30;;
11197;SDS011;5655;48.744;9.162;2023-02-28T06:27:41;9.47;;;6.20;;
11197;SDS011;5655;48.744;9.162;2023-02-28T06:30:06;10.90;;;6.30;;
11197;SDS011;5655;48.744;9.162;2023-02-28T06:32:32;10.43;;;5.93;;
11197;SDS011;5655;48.744;9.162;2023-02-28T06:34:58;9.17;;;5.83;;
11197;SDS011;5655;48.744;9.162;2023-02-28T06:37:23;9.20;;;6.03;;
11197;SDS011;5655;48.744;9.162;2023-02-28T06:39:51;10.87;;;5.93;;
11197;SDS011;5655;48.744;9.162;2023-02-28T06:42:16;9.93;;;6.27;;
11197;SDS011;5655;48.744;9.162;2023-02-28T06:44:41;12.10;;;6.77;;
11197;SDS011;5655;48.744;9.162;2023-02-28T06:47:08;8.73;;;5.87;;
11197;SDS011;5655;48.744;9.162;2023-02-28T06:49:34;12.30;;;6.77;;
11197;SDS011;5655;48.744;9.162;2023-02-28T06:52:00;10.90;;;6.43;;
11197;SDS011;5655;48.744;9.162;2023-02-28T06:54:25;10.47;;;6.37;;
11197;SDS011;5655;48.744;9.162;2023-02-28T06:56:52;9.50;;;6.63;;
11197;SDS011;5655;48.744;9.162;2023-02-28T06:59:19;11.53;;;6.67;;
11197;SDS011;5655;48.744;9.162;2023-02-28T07:01:45;11.73;;;6.30;;
11197;SDS011;5655;48.744;9.162;2023-02-28T07:04:10;11.23;;;6.50;;
11197;SDS011;5655;48.744;9.162;2023-02-28T07:06:35;10.60;;;6.77;;
11197;SDS011;5655;48.744;9.162;2023-02-28T07:09:01;11.17;;;6.13;;
11197;SDS011;5655;48.744;9.162;2023-02-28T07:11:27;11.20;;;6.30;;
11197;SDS011;5655;48.744;9.162;2023-02-28T07:13:53;10.90;;;6.57;;
11197;SDS011;5655;48.744;9.162;2023-02-28T07:16:21;11.03;;;7.23;;
11197;SDS011;5655;48.744;9.162;2023-02-28T07:18:47;10.87;;;6.90;;
11197;SDS011;5655;48.744;9.162;2023-02-28T07:21:13;9.30;;;6.83;;
11197;SDS011;5655;48.744;9.162;2023-02-28T07:23:39;12.27;;;7.17;;
11197;SDS011;5655;48.744;9.162;2023-02-28T07:26:06;11.53;;;6.90;;
11197;SDS011;5655;48.744;9.162;2023-02-28T07:28:32;11.70;;;7.00;;
11197;SDS011;5655;48.744;9.162;2023-02-28T07:31:02;10.77;;;6.67;;
11197;SDS011;5655;48.744;9.162;2023-02-28T07:33:29;10.67;;;6.87;;
11197;SDS011;5655;48.744;9.162;2023-02-28T07:35:59;12.80;;;6.70;;
11197;SDS011;5655;48.744;9.162;2023-02-28T07:38:26;9.33;;;6.50;;
11197;SDS011;5655;48.744;9.162;2023-02-28T07:40:51;10.20;;;6.93;;
11197;SDS011;5655;48.744;9.162;2023-02-28T07:43:16;12.03;;;7.77;;
11197;SDS011;5655;48.744;9.162;2023-02-28T07:45:42;14.73;;;7.20;;
11197;SDS011;5655;48.744;9.162;2023-02-28T07:48:07;11.30;;;7.37;;
11197;SDS011;5655;48.744;9.162;2023-02-28T07:50:34;11.50;;;6.87;;
11197;SDS011;5655;48.744;9.162;2023-02-28T07:53:00;8.77;;;6.80;;
11197;SDS011;5655;48.744;9.162;2023-02-28T07:55:25;10.13;;;7.10;;
11197;SDS011;5655;48.744;9.162;2023-02-28T07:57:51;11.23;;;7.13;;
11197;SDS011;5655;48.744;9.162;2023-02-28T08:00:17;13.40;;;7.53;;
11197;SDS011;5655;48.744;9.162;2023-02-28T08:02:42;10.03;;;7.27;;
11197;SDS011;5655;48.744;9.162;2023-02-28T08:05:08;10.83;;;6.13;;
11197;SDS011;5655;48.744;9.162;2023-02-28T08:07:33;10.87;;;7.33;;
11197;SDS011;5655;48.744;9.162;2023-02-28T08:09:58;12.93;;;7.77;;
11197;SDS011;5655;48.744;9.162;2023-02-28T08:12:24;11.10;;;7.10;;
11197;SDS011;5655;48.744;9.162;2023-02-28T08:14:49;12.83;;;6.57;;
11197;SDS011;5655;48.744;9.162;2023-02-28T08:17:15;10.87;;;7.33;;
11197;SDS011;5655;48.744;9.162;2023-02-28T08:19:40;11.37;;;7.30;;
11197;SDS011;5655;48.744;9.162;2023-02-28T08:22:05;11.87;;;6.87;;
11197;SDS011;5655;48.744;9.162;2023-02-28T08:24:31;12.17;;;8.03;;
11197;SDS011;5655;48.744;9.162;2023-02-28T08:26:56;21.83;;;8.40;;
11197;SDS011;5655;48.744;9.162;2023-02-28T08:29:21;12.13;;;8.17;;
11197;SDS011;5655;48.744;9.162;2023-02-28T08:31:47;10.70;;;7.17;;
11197;SDS011;5655;48.744;9.162;2023-02-28T08:34:13;9.93;;;7.40;;
11197;SDS011;5655;48.744;9.162;2023-02-28T08:36:40;11.57;;;7.37;;
11197;SDS011;5655;48.744;9.162;2023-02-28T08:39:06;12.50;;;7.17;;
11197;SDS011;5655;48.744;9.162;2023-02-28T08:41:31;12.37;;;7.23;;
11197;SDS011;5655;48.744;9.162;2023-02-28T08:43:57;13.03;;;7.43;;
11197;SDS011;5655;48.744;9.162;2023-02-28T08:46:22;11.43;;;7.57;;
11197;SDS011;5655;48.744;9.162;2023-02-28T08:48:50;11.57;;;7.90;;
11197;SDS011;5655;48.744;9.162;2023-02-28T08:51:19;11.97;;;7.17;;
11197;SDS011;5655;48.744;9.162;2023-02-28T08:53:51;14.33;;;7.40;;
11197;SDS011;5655;48.744;9.162;2023-02-28T08:56:18;13.20;;;7.83;;
11197;SDS011;5655;48.744;9.162;2023-02-28T08:58:44;10.67;;;7.43;;
11197;SDS011;5655;48.744;9.162;2023-02-28T09:03:44;10.73;;;7.30;;
11197;SDS011;5655;48.744;9.162;2023-02-28T09:06:11;12.67;;;7.40;;
11197;SDS011;5655;48.744;9.162;2023-02-28T09:08:36;11.87;;;7.70;;
11197;SDS011;5655;48.744;9.162;2023-02-28T09:11:02;11.00;;;7.30;;
11197;SDS011;5655;48.744;9.162;2023-02-28T09:13:28;15.03;;;8.30;;
11197;SDS011;5655;48.744;9.162;2023-02-28T09:15:55;34.03;;;9.20;;
11197;SDS011;5655;48.744;9.162;2023-02-28T09:18:26;26.53;;;9.23;;
11197;SDS011;5655;48.744;9.162;2023-02-28T09:20:52;13.13;;;7.70;;
11197;SDS011;5655;48.744;9.162;2023-02-28T09:23:18;13.27;;;7.57;;
11197;SDS011;5655;48.744;9.162;2023-02-28T09:25:47;16.03;;;7.73;;
11197;SDS011;5655;48.744;9.162;2023-02-28T09:28:15;11.00;;;7.40;;
11197;SDS011;5655;48.744;9.162;2023-02-28T09:30:43;11.87;;;7.20;;
11197;SDS011;5655;48.744;9.162;2023-02-28T09:33:10;11.13;;;7.67;;
11197;SDS011;5655;48.744;9.162;2023-02-28T09:35:36;11.33;;;7.97;;
11197;SDS011;5655;48.744;9.162;2023-02-28T09:38:02;11.50;;;7.90;;
11197;SDS011;5655;48.744;9.162;2023-02-28T09:40:28;10.07;;;6.87;;
11197;SDS011;5655;48.744;9.162;2023-02-28T09:42:55;9.83;;;7.17;;
11197;SDS011;5655;48.744;9.162;2023-02-28T09:45:27;12.23;;;7.63;;
11197;SDS011;5655;48.744;9.162;2023-02-28T09:47:58;10.67;;;7.57;;
11197;SDS011;5655;48.744;9.162;2023-02-28T09:50:36;16.70;;;8.57;;
11197;SDS011;5655;48.744;9.162;2023-02-28T09:53:39;12.13;;;7.53;;
11197;SDS011;5655;48.744;9.162;2023-02-28T10:04:03;19.47;;;8.43;;
11197;SDS011;5655;48.744;9.162;2023-02-28T10:09:47;12.10;;;7.40;;
11197;SDS011;5655;48.744;9.162;2023-02-28T10:12:17;11.83;;;7.73;;
11197;SDS011;5655;48.744;9.162;2023-02-28T10:14:45;14.13;;;8.40;;
11197;SDS011;5655;48.744;9.162;2023-02-28T10:22:17;15.27;;;9.47;;
11197;SDS011;5655;48.744;9.162;2023-02-28T10:24:51;16.27;;;9.10;;
11197;SDS011;5655;48.744;9.162;2023-02-28T10:27:19;15.07;;;9.00;;
11197;SDS011;5655;48.744;9.162;2023-02-28T10:29:53;13.87;;;8.07;;
11197;SDS011;5655;48.744;9.162;2023-02-28T10:32:21;12.10;;;7.83;;
11197;SDS011;5655;48.744;9.162;2023-02-28T10:34:53;12.97;;;8.40;;
11197;SDS011;5655;48.744;9.162;2023-02-28T10:37:22;12.33;;;8.00;;
11197;SDS011;5655;48.744;9.162;2023-02-28T10:39:48;13.83;;;8.37;;
11197;SDS011;5655;48.744;9.162;2023-02-28T10:42:26;10.63;;;7.50;;
11197;SDS011;5655;48.744;9.162;2023-02-28T10:45:06;13.63;;;8.33;;
11197;SDS011;5655;48.744;9.162;2023-02-28T10:47:38;13.40;;;8.63;;
11197;SDS011;5655;48.744;9.162;2023-02-28T10:50:26;15.07;;;8.93;;
11197;SDS011;5655;48.744;9.162;2023-02-28T10:55:41;13.83;;;7.83;;
11197;SDS011;5655;48.744;9.162;2023-02-28T10:58:28;15.03;;;9.20;;
11197;SDS011;5655;48.744;9.162;2023-02-28T11:01:17;12.50;;;8.03;;
11197;SDS011;5655;48.744;9.162;2023-02-28T11:03:42;15.70;;;8.20;;
11197;SDS011;5655;48.744;9.162;2023-02-28T11:06:29;12.33;;;7.63;;
11197;SDS011;5655;48.744;9.162;2023-02-28T11:08:59;13.13;;;8.60;;
11197;SDS011;5655;48.744;9.162;2023-02-28T11:11:42;12.43;;;8.43;;
11197;SDS011;5655;48.744;9.162;2023-02-28T11:14:26;15.10;;;8.27;;
11197;SDS011;5655;48.744;9.162;2023-02-28T11:16:53;13.37;;;9.07;;
11197;SDS011;5655;48.744;9.162;2023-02-28T11:19:23;11.43;;;8.60;;
11197;SDS011;5655;48.744;9.162;2023-02-28T11:21:53;13.43;;;8.60;;
11197;SDS011;5655;48.744;9.162;2023-02-28T11:26:50;11.40;;;8.00;;
11197;SDS011;5655;48.744;9.162;2023-02-28T11:29:17;12.70;;;7.67;;
11197;SDS011;5655;48.744;9.162;2023-02-28T11:34:35;13.30;;;8.33;;
11197;SDS011;5655;48.744;9.162;2023-02-28T11:37:03;15.57;;;9.40;;
11197;SDS011;5655;48.744;9.162;2023-02-28T11:39:30;11.60;;;8.23;;
11197;SDS011;5655;48.744;9.162;2023-02-28T11:42:00;12.70;;;7.90;;
11197;SDS011;5655;48.744;9.162;2023-02-28T11:47:24;11.57;;;7.53;;
11197;SDS011;5655;48.744;9.162;2023-02-28T11:56:05;29.20;;;9.30;;
11197;SDS011;5655;48.744;9.162;2023-02-28T12:01:43;12.02;;;7.63;;
11197;SDS011;5655;48.744;9.162;2023-02-28T12:27:17;12.23;;;7.70;;
11197;SDS011;5655;48.744;9.162;2023-02-28T12:29:48;12.57;;;8.40;;
11197;SDS011;5655;48.744;9.162;2023-02-28T12:32:37;10.07;;;7.50;;
11197;SDS011;5655;48.744;9.162;2023-02-28T12:35:12;10.98;;;7.93;;
11197;SDS011;5655;48.744;9.162;2023-02-28T12:37:44;11.27;;;7.80;;
11197;SDS011;5655;48.744;9.162;2023-02-28T12:40:19;11.23;;;7.88;;
11197;SDS011;5655;48.744;9.162;2023-02-28T12:42:47;11.45;;;8.50;;
11197;SDS011;5655;48.744;9.162;2023-02-28T12:47:46;12.65;;;7.57;;
11197;SDS011;5655;48.744;9.162;2023-02-28T12:50:25;9.70;;;7.68;;
11197;SDS011;5655;48.744;9.162;2023-02-28T12:53:15;10.63;;;7.70;;
11197;SDS011;5655;48.744;9.162;2023-02-28T12:58:19;10.07;;;7.95;;
11197;SDS011;5655;48.744;9.162;2023-02-28T13:11:49;9.82;;;7.75;;
11197;SDS011;5655;48.744;9.162;2023-02-28T13:22:15;11.60;;;8.05;;
11197;SDS011;5655;48.744;9.162;2023-02-28T13:24:44;8.88;;;7.45;;
11197;SDS011;5655;48.744;9.162;2023-02-28T13:36:10;9.75;;;7.30;;
11197;SDS011;5655;48.744;9.162;2023-02-28T13:38:56;11.07;;;7.53;;
11197;SDS011;5655;48.744;9.162;2023-02-28T13:46:26;12.30;;;7.82;;
11197;SDS011;5655;48.744;9.162;2023-02-28T13:48:52;12.02;;;7.25;;
11197;SDS011;5655;48.744;9.162;2023-02-28T13:57:21;9.35;;;7.82;;
11197;SDS011;5655;48.744;9.162;2023-02-28T14:00:35;11.23;;;8.35;;
11197;SDS011;5655;48.744;9.162;2023-02-28T14:02:48;11.02;;;7.88;;
11197;SDS011;5655;48.744;9.162;2023-02-28T14:05:17;11.30;;;8.00;;
11197;SDS011;5655;48.744;9.162;2023-02-28T14:07:50;11.27;;;8.15;;
11197;SDS011;5655;48.744;9.162;2023-02-28T14:10:31;9.57;;;7.07;;
11197;SDS011;5655;48.744;9.162;2023-02-28T14:13:11;10.73;;;7.72;;
11197;SDS011;5655;48.744;9.162;2023-02-28T14:16:00;11.98;;;7.55;;
11197;SDS011;5655;48.744;9.162;2023-02-28T14:18:29;13.75;;;7.78;;
11197;SDS011;5655;48.744;9.162;2023-02-28T14:20:58;12.35;;;7.78;;
11197;SDS011;5655;48.744;9.162;2023-02-28T14:23:34;10.30;;;7.90;;
11197;SDS011;5655;48.744;9.162;2023-02-28T14:26:30;9.57;;;7.15;;
11197;SDS011;5655;48.744;9.162;2023-02-28T14:32:01;9.32;;;7.68;;
11197;SDS011;5655;48.744;9.162;2023-02-28T14:34:39;9.20;;;7.38;;
11197;SDS011;5655;48.744;9.162;2023-02-28T14:37:29;11.20;;;7.20;;
11197;SDS011;5655;48.744;9.162;2023-02-28T14:39:58;13.65;;;7.20;;
11197;SDS011;5655;48.744;9.162;2023-02-28T14:42:32;9.38;;;7.47;;
11197;SDS011;5655;48.744;9.162;2023-02-28T14:44:59;11.52;;;7.22;;
11197;SDS011;5655;48.744;9.162;2023-02-28T14:47:30;9.65;;;7.80;;
11197;SDS011;5655;48.744;9.162;2023-02-28T14:49:58;9.43;;;6.95;;
11197;SDS011;5655;48.744;9.162;2023-02-28T14:52:29;13.93;;;7.88;;
11197;SDS011;5655;48.744;9.162;2023-02-28T14:55:02;16.88;;;8.00;;
11197;SDS011;5655;48.744;9.162;2023-02-28T14:57:39;13.15;;;8.23;;
11197;SDS011;5655;48.744;9.162;2023-02-28T15:02:37;11.88;;;8.02;;
11197;SDS011;5655;48.744;9.162;2023-02-28T15:07:41;12.45;;;7.72;;
11197;SDS011;5655;48.744;9.162;2023-02-28T15:12:54;12.98;;;8.00;;
11197;SDS011;5655;48.744;9.162;2023-02-28T15:15:21;12.45;;;7.32;;
11197;SDS011;5655;48.744;9.162;2023-02-28T15:17:50;10.13;;;7.25;;
11197;SDS011;5655;48.744;9.162;2023-02-28T15:20:19;10.32;;;7.50;;
11197;SDS011;5655;48.744;9.162;2023-02-28T15:22:46;10.30;;;7.07;;
11197;SDS011;5655;48.744;9.162;2023-02-28T15:25:15;11.63;;;7.32;;
11197;SDS011;5655;48.744;9.162;2023-02-28T15:27:45;13.18;;;7.63;;
11197;SDS011;5655;48.744;9.162;2023-02-28T15:30:32;11.48;;;7.70;;
11197;SDS011;5655;48.744;9.162;2023-02-28T15:35:50;10.75;;;7.20;;
11197;SDS011;5655;48.744;9.162;2023-02-28T15:38:23;11.10;;;7.80;;
11197;SDS011;5655;48.744;9.162;2023-02-28T15:40:53;11.80;;;7.63;;
11197;SDS011;5655;48.744;9.162;2023-02-28T15:45:52;12.88;;;8.18;;
11197;SDS011;5655;48.744;9.162;2023-02-28T15:50:49;10.73;;;8.05;;
11197;SDS011;5655;48.744;9.162;2023-02-28T15:53:28;10.85;;;7.18;;
11197;SDS011;5655;48.744;9.162;2023-02-28T15:56:39;11.25;;;7.50;;
11197;SDS011;5655;48.744;9.162;2023-02-28T15:58:56;10.60;;;7.35;;
11197;SDS011;5655;48.744;9.162;2023-02-28T16:01:24;12.05;;;7.25;;
11197;SDS011;5655;48.744;9.162;2023-02-28T16:03:54;14.35;;;8.18;;
11197;SDS011;5655;48.744;9.162;2023-02-28T16:06:24;11.23;;;7.43;;
11197;SDS011;5655;48.744;9.162;2023-02-28T16:09:13;11.55;;;7.20;;
11197;SDS011;5655;48.744;9.162;2023-02-28T16:11:41;10.50;;;7.85;;
11197;SDS011;5655;48.744;9.162;2023-02-28T16:14:21;10.63;;;7.50;;
11197;SDS011;5655;48.744;9.162;2023-02-28T16:16:51;12.73;;;8.00;;
11197;SDS011;5655;48.744;9.162;2023-02-28T16:19:18;10.18;;;8.13;;
11197;SDS011;5655;48.744;9.162;2023-02-28T16:21:44;12.70;;;8.13;;
11197;SDS011;5655;48.744;9.162;2023-02-28T16:24:10;11.75;;;7.82;;
11197;SDS011;5655;48.744;9.162;2023-02-28T16:26:36;10.45;;;7.82;;
11197;SDS011;5655;48.744;9.162;2023-02-28T16:29:04;12.88;;;7.85;;
11197;SDS011;5655;48.744;9.162;2023-02-28T16:31:31;12.45;;;8.13;;
11197;SDS011;5655;48.744;9.162;2023-02-28T16:34:00;11.05;;;7.75;;
11197;SDS011;5655;48.744;9.162;2023-02-28T16:36:25;11.75;;;8.45;;
11197;SDS011;5655;48.744;9.162;2023-02-28T16:38:51;13.27;;;7.85;;
11197;SDS011;5655;48.744;9.162;2023-02-28T16:41:18;14.30;;;8.38;;
11197;SDS011;5655;48.744;9.162;2023-02-28T16:43:46;13.43;;;8.90;;
11197;SDS011;5655;48.744;9.162;2023-02-28T16:46:13;12.15;;;8.48;;
11197;SDS011;5655;48.744;9.162;2023-02-28T16:48:39;14.63;;;8.82;;
11197;SDS011;5655;48.744;9.162;2023-02-28T16:51:06;10.10;;;7.65;;
11197;SDS011;5655;48.744;9.162;2023-02-28T16:53:36;12.20;;;8.05;;
11197;SDS011;5655;48.744;9.162;2023-02-28T16:56:01;12.13;;;8.65;;
11197;SDS011;5655;48.744;9.162;2023-02-28T16:58:27;10.50;;;8.18;;
11197;SDS011;5655;48.744;9.162;2023-02-28T17:00:53;13.43;;;8.52;;
11197;SDS011;5655;48.744;9.162;2023-02-28T17:03:25;11.52;;;7.75;;
11197;SDS011;5655;48.744;9.162;2023-02-28T17:05:52;12.88;;;8.27;;
11197;SDS011;5655;48.744;9.162;2023-02-28T17:08:18;12.65;;;8.43;;
11197;SDS011;5655;48.744;9.162;2023-02-28T17:10:43;13.73;;;8.40;;
11197;SDS011;5655;48.744;9.162;2023-02-28T17:13:09;11.40;;;7.85;;
11197;SDS011;5655;48.744;9.162;2023-02-28T17:15:34;12.15;;;8.60;;
11197;SDS011;5655;48.744;9.162;2023-02-28T17:18:00;11.77;;;7.80;;
11197;SDS011;5655;48.744;9.162;2023-02-28T17:20:26;14.40;;;8.33;;
11197;SDS011;5655;48.744;9.162;2023-02-28T17:22:54;13.02;;;8.88;;
11197;SDS011;5655;48.744;9.162;2023-02-28T17:25:21;11.57;;;8.00;;
11197;SDS011;5655;48.744;9.162;2023-02-28T17:27:47;14.15;;;9.05;;
11197;SDS011;5655;48.744;9.162;2023-02-28T17:30:14;11.67;;;8.30;;
11197;SDS011;5655;48.744;9.162;2023-02-28T17:32:45;13.85;;;8.50;;
11197;SDS011;5655;48.744;9.162;2023-02-28T17:35:10;12.93;;;8.70;;
11197;SDS011;5655;48.744;9.162;2023-02-28T17:37:35;13.97;;;8.87;;
11197;SDS011;5655;48.744;9.162;2023-02-28T17:40:01;13.55;;;8.48;;
11197;SDS011;5655;48.744;9.162;2023-02-28T17:42:27;14.93;;;8.67;;
11197;SDS011;5655;48.744;9.162;2023-02-28T17:44:52;13.63;;;9.13;;
11197;SDS011;5655;48.744;9.162;2023-02-28T17:47:18;12.53;;;8.57;;
11197;SDS011;5655;48.744;9.162;2023-02-28T17:49:43;12.67;;;8.57;;